Time;durP1;ratioP1;P1;durP2;ratioP2;P2;SDS_P1;SDS_P2;PMS_P1;PMS_P2;Temp;Humidity;BMP_temperature;BMP_pressure;BME280_temperature;BME280_humidity;BME280_pressure;Samples;Min_cycle;Max_cycle;Signal;HPM_P1;HPM_P2
2022/03/07 00:02:34;;;;;;;55.78;30.00;;;;;;;;;;4773659;30;20051;-78
2022/03/07 00:05:20;;;;;;;50.40;27.45;;;;;;;;;;4773453;30;20047;-79
2022/03/07 00:08:06;;;;;;;55.80;31.58;;;;;;;;;;4773271;30;20051;-78
2022/03/07 00:10:51;;;;;;;61.40;31.83;;;;;;;;;;4771295;30;20051;-78
2022/03/07 00:13:37;;;;;;;74.32;34.65;;;;;;;;;;4771065;30;20051;-78
2022/03/07 00:16:22;;;;;;;65.15;31.35;;;;;;;;;;4777091;30;20414;-78
2022/03/07 00:19:11;;;;;;;72.63;33.65;;;;;;;;;;4771037;30;20044;-78
2022/03/07 00:21:57;;;;;;;64.25;32.22;;;;;;;;;;4771324;30;20511;-77
2022/03/07 00:24:42;;;;;;;73.85;33.88;;;;;;;;;;4771032;30;20044;-79
2022/03/07 00:27:28;;;;;;;58.83;28.83;;;;;;;;;;4770865;30;20055;-79
2022/03/07 00:30:15;;;;;;;81.97;35.58;;;;;;;;;;4770961;30;20055;-79
2022/03/07 00:33:01;;;;;;;44.72;25.92;;;;;;;;;;4772359;30;20055;-79
2022/03/07 00:35:47;;;;;;;46.78;26.27;;;;;;;;;;4773007;30;20055;-79
2022/03/07 00:38:34;;;;;;;51.65;25.17;;;;;;;;;;4773249;30;20051;-78
2022/03/07 00:41:18;;;;;;;52.50;26.95;;;;;;;;;;4772666;30;20052;-79
2022/03/07 00:44:04;;;;;;;59.42;31.02;;;;;;;;;;4772912;30;20495;-79
2022/03/07 00:46:49;;;;;;;49.53;28.35;;;;;;;;;;4773600;30;20059;-80
2022/03/07 00:49:35;;;;;;;53.42;28.85;;;;;;;;;;4778342;30;20047;-78
2022/03/07 00:52:20;;;;;;;61.90;29.88;;;;;;;;;;4772159;30;20064;-79
2022/03/07 00:55:06;;;;;;;54.50;28.20;;;;;;;;;;4800861;29;20055;-79
2022/03/07 00:57:51;;;;;;;57.47;26.73;;;;;;;;;;4784979;30;20051;-78
2022/03/07 01:00:38;;;;;;;50.97;26.55;;;;;;;;;;4777623;30;20051;-79
2022/03/07 01:03:23;;;;;;;47.45;24.90;;;;;;;;;;4777844;30;20052;-78
2022/03/07 01:06:09;;;;;;;39.55;22.52;;;;;;;;;;4777490;30;20048;-77
2022/03/07 01:08:54;;;;;;;38.20;21.95;;;;;;;;;;4772161;30;20052;-78
2022/03/07 01:11:41;;;;;;;37.13;21.05;;;;;;;;;;4772525;30;20048;-78
2022/03/07 01:14:27;;;;;;;33.58;20.27;;;;;;;;;;4772444;30;20044;-79
2022/03/07 01:17:12;;;;;;;34.65;19.88;;;;;;;;;;4772419;30;20479;-79
2022/03/07 01:19:58;;;;;;;38.08;20.05;;;;;;;;;;4777161;30;20047;-79
2022/03/07 01:22:43;;;;;;;31.80;18.95;;;;;;;;;;4778930;30;20063;-78
2022/03/07 01:25:29;;;;;;;35.63;21.58;;;;;;;;;;4779353;30;20047;-77
2022/03/07 01:28:15;;;;;;;42.75;23.52;;;;;;;;;;4772417;30;20052;-79
2022/03/07 01:31:00;;;;;;;42.53;22.50;;;;;;;;;;4776536;30;20056;-80
2022/03/07 01:33:46;;;;;;;34.83;19.80;;;;;;;;;;4778242;30;20047;-78
2022/03/07 01:36:33;;;;;;;37.53;21.20;;;;;;;;;;4778723;30;20056;-77
2022/03/07 01:39:19;;;;;;;42.17;20.85;;;;;;;;;;4772356;30;20047;-78
2022/03/07 01:42:05;;;;;;;41.60;23.63;;;;;;;;;;4778056;30;20051;-77
2022/03/07 01:44:50;;;;;;;41.55;23.20;;;;;;;;;;4776657;30;20399;-78
2022/03/07 01:47:36;;;;;;;39.80;22.80;;;;;;;;;;4771945;30;20063;-79
2022/03/07 01:50:21;;;;;;;36.75;22.27;;;;;;;;;;4771443;30;20052;-80
2022/03/07 01:53:06;;;;;;;36.30;21.73;;;;;;;;;;4776705;30;20051;-79
2022/03/07 01:55:55;;;;;;;40.03;21.67;;;;;;;;;;4771998;30;20056;-79
2022/03/07 01:58:39;;;;;;;37.50;21.67;;;;;;;;;;4771359;30;20051;-80
2022/03/07 02:01:25;;;;;;;39.50;22.63;;;;;;;;;;4777109;30;20039;-79
2022/03/07 02:04:11;;;;;;;38.65;21.88;;;;;;;;;;4775846;30;20059;-79
2022/03/07 02:06:57;;;;;;;34.58;20.10;;;;;;;;;;4776291;30;20055;-79
2022/03/07 02:09:44;;;;;;;36.00;22.00;;;;;;;;;;4776358;30;20055;-79
2022/03/07 02:12:32;;;;;;;39.65;21.98;;;;;;;;;;4776317;30;20051;-79
2022/03/07 02:15:19;;;;;;;37.42;22.05;;;;;;;;;;4776127;30;20411;-79
2022/03/07 02:18:04;;;;;;;36.40;21.45;;;;;;;;;;4771039;30;20498;-79
2022/03/07 02:20:56;;;;;;;38.15;22.45;;;;;;;;;;4771909;30;20043;-80
2022/03/07 02:23:42;;;;;;;35.80;20.77;;;;;;;;;;4763603;30;20043;-79
2022/03/07 02:26:30;;;;;;;43.97;22.33;;;;;;;;;;4776080;30;20081;-79
2022/03/07 02:29:16;;;;;;;42.47;23.23;;;;;;;;;;4776252;30;20486;-80
2022/03/07 02:32:03;;;;;;;39.10;23.55;;;;;;;;;;4775889;30;20055;-79
2022/03/07 02:34:50;;;;;;;40.58;23.13;;;;;;;;;;4776640;30;20056;-79
2022/03/07 02:37:37;;;;;;;40.78;23.23;;;;;;;;;;4776076;30;20051;-79
2022/03/07 02:40:23;;;;;;;38.45;22.13;;;;;;;;;;4770793;30;20047;-78
2022/03/07 02:43:08;;;;;;;39.47;23.10;;;;;;;;;;4775941;30;20414;-78
2022/03/07 02:45:55;;;;;;;41.95;23.90;;;;;;;;;;4776106;30;20059;-78
2022/03/07 02:48:40;;;;;;;42.47;22.83;;;;;;;;;;4775729;30;20415;-79
2022/03/07 02:51:26;;;;;;;39.25;22.52;;;;;;;;;;4771915;30;20063;-79
2022/03/07 02:54:12;;;;;;;39.05;22.45;;;;;;;;;;4770677;30;20052;-80
2022/03/07 02:56:57;;;;;;;37.10;22.60;;;;;;;;;;4770639;30;20055;-79
2022/03/07 02:59:43;;;;;;;42.42;22.73;;;;;;;;;;4770520;30;20056;-79
2022/03/07 03:02:28;;;;;;;38.13;22.77;;;;;;;;;;4775678;30;20043;-80
2022/03/07 03:05:14;;;;;;;37.08;21.88;;;;;;;;;;4770856;30;20406;-79
2022/03/07 03:07:59;;;;;;;45.58;23.67;;;;;;;;;;4771034;30;20047;-79
2022/03/07 03:10:45;;;;;;;40.92;22.75;;;;;;;;;;4771619;30;20051;-80
2022/03/07 03:13:31;;;;;;;39.53;22.98;;;;;;;;;;4775455;30;20048;-80
2022/03/07 03:16:16;;;;;;;40.80;23.27;;;;;;;;;;4779163;30;20056;-77
2022/03/07 03:19:02;;;;;;;37.90;21.05;;;;;;;;;;4792458;30;20044;-78
2022/03/07 03:21:47;;;;;;;41.22;22.95;;;;;;;;;;4780263;30;20040;-79
2022/03/07 03:24:33;;;;;;;45.67;23.33;;;;;;;;;;4774681;30;20051;-79
2022/03/07 03:27:19;;;;;;;44.67;24.35;;;;;;;;;;4774553;30;20051;-78
2022/03/07 03:30:06;;;;;;;44.55;27.10;;;;;;;;;;4773813;30;20047;-78
2022/03/07 03:32:52;;;;;;;40.47;22.45;;;;;;;;;;4774048;30;20402;-78
2022/03/07 03:35:38;;;;;;;39.45;21.45;;;;;;;;;;4773853;30;20048;-78
2022/03/07 03:38:23;;;;;;;31.63;18.27;;;;;;;;;;4774245;30;20398;-79
2022/03/07 03:41:08;;;;;;;33.17;18.92;;;;;;;;;;4773742;30;20043;-79
2022/03/07 03:43:54;;;;;;;34.45;18.40;;;;;;;;;;4773798;30;20059;-79
2022/03/07 03:46:40;;;;;;;26.38;16.92;;;;;;;;;;4773779;30;20448;-79
2022/03/07 03:49:25;;;;;;;30.80;18.08;;;;;;;;;;4773418;30;20047;-79
2022/03/07 03:52:11;;;;;;;35.67;19.40;;;;;;;;;;4773103;30;20052;-79
2022/03/07 03:54:56;;;;;;;32.50;19.88;;;;;;;;;;4779766;30;20491;-78
2022/03/07 03:57:43;;;;;;;32.78;20.20;;;;;;;;;;4773750;30;20047;-78
2022/03/07 04:00:29;;;;;;;38.03;22.02;;;;;;;;;;4773534;30;20047;-79
2022/03/07 04:03:14;;;;;;;40.15;22.85;;;;;;;;;;4773327;30;20052;-78
2022/03/07 04:06:00;;;;;;;42.25;23.70;;;;;;;;;;4779601;30;20402;-78
2022/03/07 04:08:49;;;;;;;52.75;25.40;;;;;;;;;;4773394;30;20048;-78
2022/03/07 04:11:35;;;;;;;41.78;23.23;;;;;;;;;;4778840;30;20044;-77
2022/03/07 04:14:21;;;;;;;47.28;25.13;;;;;;;;;;4773511;30;20052;-78
2022/03/07 04:17:06;;;;;;;38.17;22.10;;;;;;;;;;4773387;30;20048;-78
2022/03/07 04:19:52;;;;;;;44.05;22.83;;;;;;;;;;4773596;30;20379;-79
2022/03/07 04:22:38;;;;;;;39.30;21.85;;;;;;;;;;4774096;30;20056;-79
2022/03/07 04:25:23;;;;;;;40.95;22.80;;;;;;;;;;4776978;30;20140;-79
2022/03/07 04:28:07;;;;;;;41.78;23.50;;;;;;;;;;4773207;30;20052;-77
2022/03/07 04:30:53;;;;;;;38.70;21.40;;;;;;;;;;4772563;30;20265;-79
2022/03/07 04:33:39;;;;;;;39.67;21.15;;;;;;;;;;4772904;30;20051;-80
2022/03/07 04:36:24;;;;;;;39.10;20.67;;;;;;;;;;4773086;30;20049;-79
2022/03/07 04:39:11;;;;;;;31.63;18.83;;;;;;;;;;4776706;30;20047;-79
2022/03/07 04:41:56;;;;;;;33.72;19.85;;;;;;;;;;4772946;30;20056;-79
2022/03/07 04:44:41;;;;;;;38.78;21.40;;;;;;;;;;4772590;30;20056;-79
2022/03/07 04:47:27;;;;;;;39.53;21.02;;;;;;;;;;4772658;30;20415;-79
2022/03/07 04:50:13;;;;;;;37.00;20.75;;;;;;;;;;4772945;30;20060;-79
2022/03/07 04:52:58;;;;;;;38.65;20.08;;;;;;;;;;4772637;30;20048;-79
2022/03/07 04:55:43;;;;;;;33.35;18.52;;;;;;;;;;4772778;30;20047;-79
2022/03/07 04:58:29;;;;;;;34.00;18.17;;;;;;;;;;4772428;30;20048;-79
2022/03/07 05:01:15;;;;;;;32.05;17.45;;;;;;;;;;4772376;30;20059;-79
2022/03/07 05:04:01;;;;;;;31.88;19.67;;;;;;;;;;4772806;30;20051;-79
2022/03/07 05:06:47;;;;;;;29.55;16.77;;;;;;;;;;4772318;30;20048;-79
2022/03/07 05:09:33;;;;;;;39.58;19.98;;;;;;;;;;4772073;30;20411;-78
2022/03/07 05:12:19;;;;;;;33.10;19.65;;;;;;;;;;4772157;30;20055;-79
2022/03/07 05:15:05;;;;;;;37.28;20.88;;;;;;;;;;4777966;30;20047;-79
2022/03/07 05:17:53;;;;;;;42.10;22.15;;;;;;;;;;4772601;30;20043;-79
2022/03/07 05:20:38;;;;;;;41.72;22.23;;;;;;;;;;4771923;30;20036;-79
2022/03/07 05:23:24;;;;;;;33.97;21.25;;;;;;;;;;4771926;30;20052;-79
2022/03/07 05:26:10;;;;;;;41.58;23.23;;;;;;;;;;4784840;30;20052;-79
2022/03/07 05:28:56;;;;;;;41.17;23.17;;;;;;;;;;4774915;30;20056;-80
2022/03/07 05:31:41;;;;;;;34.97;21.05;;;;;;;;;;4795738;29;20036;-80
2022/03/07 05:34:26;;;;;;;43.60;22.00;;;;;;;;;;4772175;30;20063;-79
2022/03/07 05:37:12;;;;;;;37.63;20.23;;;;;;;;;;4771474;30;20059;-79
2022/03/07 05:39:57;;;;;;;45.75;24.35;;;;;;;;;;4776290;30;20052;-79
2022/03/07 05:42:43;;;;;;;59.38;30.08;;;;;;;;;;4771425;30;20226;-80
2022/03/07 05:45:28;;;;;;;62.25;30.88;;;;;;;;;;4771734;30;20056;-79
2022/03/07 05:48:14;;;;;;;83.43;39.83;;;;;;;;;;4772042;30;20508;-79
2022/03/07 05:50:59;;;;;;;68.88;31.67;;;;;;;;;;4774101;30;20063;-78
2022/03/07 05:53:44;;;;;;;56.60;26.10;;;;;;;;;;4771515;30;20055;-78
2022/03/07 05:56:30;;;;;;;49.58;28.45;;;;;;;;;;4771648;30;20051;-79
2022/03/07 05:59:16;;;;;;;65.75;35.78;;;;;;;;;;4771255;30;20047;-77
2022/03/07 06:02:02;;;;;;;62.33;28.75;;;;;;;;;;4771238;30;20048;-78
2022/03/07 06:04:47;;;;;;;57.70;28.63;;;;;;;;;;4771297;30;20051;-78
2022/03/07 06:07:32;;;;;;;38.72;20.27;;;;;;;;;;4771001;30;20059;-77
2022/03/07 06:10:18;;;;;;;35.78;19.13;;;;;;;;;;4774683;30;20044;-77
2022/03/07 06:13:04;;;;;;;28.52;17.88;;;;;;;;;;4777925;30;20051;-78
2022/03/07 06:15:49;;;;;;;34.85;20.13;;;;;;;;;;4771375;30;20055;-77
2022/03/07 06:18:35;;;;;;;34.10;19.50;;;;;;;;;;4771259;30;20055;-77
2022/03/07 06:21:20;;;;;;;33.15;19.52;;;;;;;;;;4771431;30;20048;-78
2022/03/07 06:24:06;;;;;;;34.90;19.00;;;;;;;;;;4771044;30;20055;-78
2022/03/07 06:26:51;;;;;;;33.75;18.88;;;;;;;;;;4771421;30;20426;-77
2022/03/07 06:29:37;;;;;;;32.17;19.75;;;;;;;;;;4771115;30;20048;-77
2022/03/07 06:32:24;;;;;;;31.73;19.35;;;;;;;;;;4770954;30;20095;-77
2022/03/07 06:35:09;;;;;;;34.03;19.15;;;;;;;;;;4771299;30;20052;-76
2022/03/07 06:37:55;;;;;;;35.25;18.77;;;;;;;;;;4776713;30;20051;-78
2022/03/07 06:40:41;;;;;;;33.40;20.27;;;;;;;;;;4770819;30;20055;-78
2022/03/07 06:43:26;;;;;;;34.47;20.23;;;;;;;;;;4770770;30;20486;-79
2022/03/07 06:46:11;;;;;;;34.38;20.25;;;;;;;;;;4771042;30;20495;-78
2022/03/07 06:48:56;;;;;;;39.30;22.83;;;;;;;;;;4771014;30;20503;-79
2022/03/07 06:51:42;;;;;;;36.55;21.98;;;;;;;;;;4770162;30;20048;-78
2022/03/07 06:54:27;;;;;;;38.63;20.75;;;;;;;;;;4772012;30;20048;-79
2022/03/07 06:57:13;;;;;;;34.35;20.38;;;;;;;;;;4771614;30;20051;-78
2022/03/07 06:59:59;;;;;;;37.80;22.88;;;;;;;;;;4770853;30;20071;-77
2022/03/07 07:02:45;;;;;;;33.85;20.98;;;;;;;;;;4770846;30;20492;-78
2022/03/07 07:05:32;;;;;;;39.45;21.38;;;;;;;;;;4770941;30;20048;-77
2022/03/07 07:08:17;;;;;;;37.10;20.50;;;;;;;;;;4776625;30;20047;-78
2022/03/07 07:11:03;;;;;;;45.60;25.25;;;;;;;;;;4776546;30;20047;-78
2022/03/07 07:13:49;;;;;;;37.45;22.05;;;;;;;;;;4776437;30;20051;-78
2022/03/07 07:16:34;;;;;;;37.28;19.38;;;;;;;;;;4770838;30;20044;-77
2022/03/07 07:19:20;;;;;;;42.10;24.05;;;;;;;;;;4770701;30;20495;-77
2022/03/07 07:22:05;;;;;;;41.05;22.60;;;;;;;;;;4763155;30;20052;-77
2022/03/07 07:24:51;;;;;;;49.20;23.58;;;;;;;;;;4776397;30;20043;-77
2022/03/07 07:27:38;;;;;;;49.13;24.92;;;;;;;;;;4769772;30;20039;-78
2022/03/07 07:30:23;;;;;;;53.55;26.20;;;;;;;;;;4772185;30;20051;-79
2022/03/07 07:33:09;;;;;;;80.75;40.72;;;;;;;;;;4770699;30;20059;-77
2022/03/07 07:35:54;;;;;;;95.13;46.83;;;;;;;;;;4771170;30;20487;-77
2022/03/07 07:38:40;;;;;;;56.67;29.90;;;;;;;;;;4770656;30;20048;-79
2022/03/07 07:41:25;;;;;;;55.25;27.10;;;;;;;;;;4774156;30;20060;-79
2022/03/07 07:44:11;;;;;;;36.13;22.33;;;;;;;;;;4770803;30;20040;-78
2022/03/07 07:46:57;;;;;;;35.58;20.38;;;;;;;;;;4787155;29;20060;-78
2022/03/07 07:49:43;;;;;;;28.90;18.02;;;;;;;;;;4781812;29;20044;-77
2022/03/07 07:52:28;;;;;;;29.65;17.92;;;;;;;;;;4770251;30;20507;-76
2022/03/07 07:55:14;;;;;;;28.20;17.30;;;;;;;;;;4770220;30;20048;-76
2022/03/07 07:58:00;;;;;;;30.25;19.45;;;;;;;;;;4770377;30;20060;-77
2022/03/07 08:00:45;;;;;;;18.77;9.63;;;;;;;;;;4770052;30;20490;-77
2022/03/07 08:03:31;;;;;;;22.17;13.70;;;;;;;;;;4772887;30;20043;-77
2022/03/07 08:06:16;;;;;;;18.98;11.05;;;;;;;;;;4778784;30;20043;-77
2022/03/07 08:09:03;;;;;;;13.05;7.57;;;;;;;;;;4773256;30;20055;-77
2022/03/07 08:11:49;;;;;;;27.90;17.40;;;;;;;;;;4773426;30;20048;-77
2022/03/07 08:14:34;;;;;;;28.38;15.77;;;;;;;;;;4773349;30;20051;-78
2022/03/07 08:17:20;;;;;;;27.42;17.55;;;;;;;;;;4773129;30;20052;-77
2022/03/07 08:20:06;;;;;;;31.60;15.82;;;;;;;;;;4773324;30;20498;-79
2022/03/07 08:22:52;;;;;;;26.83;15.77;;;;;;;;;;4778237;30;20043;-77
2022/03/07 08:25:38;;;;;;;21.33;13.02;;;;;;;;;;4779288;30;20518;-78
2022/03/07 08:28:24;;;;;;;27.52;16.80;;;;;;;;;;4773691;30;20043;-78
2022/03/07 08:31:09;;;;;;;28.23;17.05;;;;;;;;;;4772905;30;20047;-78
2022/03/07 08:33:54;;;;;;;20.75;13.38;;;;;;;;;;4773296;30;20522;-79
2022/03/07 08:36:40;;;;;;;17.98;9.40;;;;;;;;;;4772834;30;20495;-78
2022/03/07 08:39:26;;;;;;;21.08;12.38;;;;;;;;;;4772923;30;20434;-78
2022/03/07 08:42:12;;;;;;;25.02;14.52;;;;;;;;;;4777783;30;20119;-80
2022/03/07 08:44:57;;;;;;;25.38;14.38;;;;;;;;;;4772611;30;20135;-79
2022/03/07 08:47:42;;;;;;;31.20;17.23;;;;;;;;;;4777586;30;20151;-78
2022/03/07 08:50:28;;;;;;;33.85;17.80;;;;;;;;;;4776153;30;20063;-78
2022/03/07 08:53:14;;;;;;;30.85;14.20;;;;;;;;;;4773032;30;20059;-81
2022/03/07 08:55:59;;;;;;;25.20;15.40;;;;;;;;;;4772944;30;20051;-79
2022/03/07 08:58:45;;;;;;;23.20;13.38;;;;;;;;;;4772529;30;20047;-78
2022/03/07 09:01:30;;;;;;;38.20;19.88;;;;;;;;;;4777367;30;20043;-78
2022/03/07 09:04:16;;;;;;;13.25;8.02;;;;;;;;;;4772713;30;20359;-82
2022/03/07 09:07:02;;;;;;;27.88;15.70;;;;;;;;;;4772375;30;20043;-81
2022/03/07 09:09:48;;;;;;;33.80;19.90;;;;;;;;;;4777920;30;20055;-82
2022/03/07 09:12:33;;;;;;;27.63;15.82;;;;;;;;;;4775576;30;20048;-81
2022/03/07 09:15:19;;;;;;;26.95;14.02;;;;;;;;;;4771857;30;20060;-81
2022/03/07 09:18:06;;;;;;;39.33;20.95;;;;;;;;;;4772216;30;20052;-82
2022/03/07 09:20:51;;;;;;;28.88;16.55;;;;;;;;;;4772236;30;20047;-81
2022/03/07 09:23:38;;;;;;;28.05;16.33;;;;;;;;;;4772126;30;20055;-81
2022/03/07 09:26:24;;;;;;;31.73;17.27;;;;;;;;;;4772282;30;20048;-83
2022/03/07 09:29:10;;;;;;;30.42;17.65;;;;;;;;;;4777333;30;20055;-83
2022/03/07 09:31:56;;;;;;;29.02;17.25;;;;;;;;;;4772950;30;20047;-83
2022/03/07 09:34:42;;;;;;;21.35;13.05;;;;;;;;;;4772197;30;20048;-82
2022/03/07 09:37:27;;;;;;;19.35;12.85;;;;;;;;;;4771292;30;20057;-83
2022/03/07 09:40:13;;;;;;;19.25;11.65;;;;;;;;;;4771706;30;20051;-82
2022/03/07 09:42:58;;;;;;;30.85;19.13;;;;;;;;;;4776816;30;20052;-83
2022/03/07 09:45:44;;;;;;;20.35;12.27;;;;;;;;;;4771895;30;20051;-83
2022/03/07 09:48:29;;;;;;;19.85;12.63;;;;;;;;;;4758656;30;20486;-83
2022/03/07 09:51:15;;;;;;;27.75;17.42;;;;;;;;;;4771427;30;20511;-83
2022/03/07 09:54:00;;;;;;;20.02;11.57;;;;;;;;;;4771854;30;20410;-85
2022/03/07 09:56:46;;;;;;;27.42;14.98;;;;;;;;;;4785377;30;20051;-83
2022/03/07 09:59:34;;;;;;;16.73;10.38;;;;;;;;;;4772070;30;20055;-84
2022/03/07 10:02:24;;;;;;;9.73;6.53;;;;;;;;;;4784887;29;20048;-84
2022/03/07 10:05:09;;;;;;;10.98;7.43;;;;;;;;;;4796385;29;20043;-84
2022/03/07 10:07:55;;;;;;;19.33;10.18;;;;;;;;;;4783809;30;20040;-86
2022/03/07 10:10:41;;;;;;;16.20;9.23;;;;;;;;;;4771856;30;20044;-84
2022/03/07 10:13:27;;;;;;;9.65;6.72;;;;;;;;;;4777520;30;20060;-86
2022/03/07 10:16:12;;;;;;;18.13;11.30;;;;;;;;;;4763217;30;20419;-87
2022/03/07 10:18:58;;;;;;;20.85;11.95;;;;;;;;;;4776796;30;20403;-85
2022/03/07 10:21:46;;;;;;;16.67;9.88;;;;;;;;;;4777050;30;20052;-87
2022/03/07 10:24:37;;;;;;;16.65;10.65;;;;;;;;;;4775605;30;20048;-89
2022/03/07 10:27:50;;;;;;;14.77;9.32;;;;;;;;;;4776136;30;20044;-88
2022/03/07 10:30:37;;;;;;;19.50;11.70;;;;;;;;;;4775755;30;20052;-87
2022/03/07 10:33:26;;;;;;;23.65;13.77;;;;;;;;;;4770426;30;20475;-86
2022/03/07 10:36:11;;;;;;;11.82;7.63;;;;;;;;;;4770104;30;20051;-87
2022/03/07 10:38:57;;;;;;;21.45;11.77;;;;;;;;;;4770795;30;20059;-87
2022/03/07 10:41:45;;;;;;;15.10;10.00;;;;;;;;;;4776325;30;20043;-83
2022/03/07 10:44:34;;;;;;;18.48;10.80;;;;;;;;;;4774928;30;20047;-89
2022/03/07 10:47:20;;;;;;;15.85;8.57;;;;;;;;;;4770075;30;20052;-86
2022/03/07 10:50:06;;;;;;;11.48;6.90;;;;;;;;;;4770966;30;20048;-80
2022/03/07 10:52:58;;;;;;;10.82;6.90;;;;;;;;;;4770894;30;20052;-79
2022/03/07 10:56:18;;;;;;;14.70;9.15;;;;;;;;;;4775480;30;20047;-86
2022/03/07 10:59:11;;;;;;;8.70;5.50;;;;;;;;;;4760295;30;20044;-87
2022/03/07 11:02:16;;;;;;;6.90;4.55;;;;;;;;;;4771918;30;20402;-88
2022/03/07 11:05:07;;;;;;;18.60;9.82;;;;;;;;;;4770953;30;20048;-78
2022/03/07 11:07:52;;;;;;;19.92;12.45;;;;;;;;;;4772221;30;20060;-82
2022/03/07 11:10:41;;;;;;;16.63;9.52;;;;;;;;;;4758723;30;20055;-81
2022/03/07 11:13:29;;;;;;;17.52;10.82;;;;;;;;;;4771089;30;20044;-81
2022/03/07 11:16:15;;;;;;;13.55;8.05;;;;;;;;;;4773512;30;20052;-81
2022/03/07 11:19:01;;;;;;;15.65;9.85;;;;;;;;;;4775348;30;20047;-83
2022/03/07 11:21:52;;;;;;;14.63;9.20;;;;;;;;;;4770860;30;20495;-81
2022/03/07 11:24:39;;;;;;;12.38;8.13;;;;;;;;;;4769236;30;20051;-82
2022/03/07 11:27:24;;;;;;;19.17;11.13;;;;;;;;;;4770413;30;20044;-83
2022/03/07 11:30:21;;;;;;;20.27;12.00;;;;;;;;;;4778212;30;20055;-83
2022/03/07 11:33:23;;;;;;;12.05;8.07;;;;;;;;;;4770437;30;20060;-83
2022/03/07 11:36:17;;;;;;;10.68;7.35;;;;;;;;;;4770416;30;20052;-84
2022/03/07 11:39:03;;;;;;;17.30;10.13;;;;;;;;;;4778839;30;20066;-83
2022/03/07 11:41:49;;;;;;;10.15;7.18;;;;;;;;;;4774103;30;20411;-81
2022/03/07 11:44:34;;;;;;;20.85;12.48;;;;;;;;;;4773647;30;20047;-82
2022/03/07 11:47:20;;;;;;;14.70;8.82;;;;;;;;;;4773519;30;20407;-82
2022/03/07 11:50:06;;;;;;;16.17;10.20;;;;;;;;;;4774414;30;20047;-83
2022/03/07 11:53:02;;;;;;;11.23;7.88;;;;;;;;;;4774193;30;20499;-82
2022/03/07 11:55:50;;;;;;;20.52;12.40;;;;;;;;;;4778483;30;20044;-81
2022/03/07 11:58:37;;;;;;;12.07;8.75;;;;;;;;;;4773516;30;20583;-83
2022/03/07 12:01:24;;;;;;;17.92;11.27;;;;;;;;;;4773552;30;20039;-82
2022/03/07 12:04:14;;;;;;;10.43;6.60;;;;;;;;;;4774059;30;20047;-82
2022/03/07 12:07:00;;;;;;;13.43;7.75;;;;;;;;;;4773837;30;20106;-81
2022/03/07 12:09:45;;;;;;;12.88;7.72;;;;;;;;;;4774031;30;20055;-82
2022/03/07 12:12:31;;;;;;;23.95;12.00;;;;;;;;;;4773081;30;20052;-83
2022/03/07 12:15:16;;;;;;;16.92;10.85;;;;;;;;;;4759764;30;20063;-82
2022/03/07 12:18:07;;;;;;;20.05;13.48;;;;;;;;;;4780402;30;20047;-81
2022/03/07 12:20:57;;;;;;;22.35;14.50;;;;;;;;;;4796211;29;20052;-81
2022/03/07 12:23:42;;;;;;;17.35;11.13;;;;;;;;;;4776782;30;20055;-81
2022/03/07 12:26:28;;;;;;;19.63;10.23;;;;;;;;;;4772664;30;20052;-82
2022/03/07 12:29:15;;;;;;;23.40;13.95;;;;;;;;;;4773226;30;20483;-83
2022/03/07 12:32:04;;;;;;;21.90;13.05;;;;;;;;;;4772047;30;20052;-85
2022/03/07 12:34:49;;;;;;;12.27;8.20;;;;;;;;;;4773026;30;20052;-85
2022/03/07 12:37:37;;;;;;;22.02;13.50;;;;;;;;;;4773158;30;20411;-85
2022/03/07 12:40:24;;;;;;;12.20;8.32;;;;;;;;;;4773038;30;20092;-82
2022/03/07 12:43:09;;;;;;;20.42;12.90;;;;;;;;;;4772114;30;20048;-84
2022/03/07 12:45:57;;;;;;;18.60;11.38;;;;;;;;;;4765938;30;20055;-84
2022/03/07 12:48:43;;;;;;;22.20;14.23;;;;;;;;;;4773920;30;20055;-83
2022/03/07 12:51:30;;;;;;;15.25;9.85;;;;;;;;;;4773592;30;20051;-85
2022/03/07 12:54:25;;;;;;;21.10;13.02;;;;;;;;;;4775114;30;20044;-85
2022/03/07 12:57:15;;;;;;;33.63;17.23;;;;;;;;;;4773200;30;20044;-84
2022/03/07 13:00:05;;;;;;;16.50;9.15;;;;;;;;;;4782966;30;20044;-86
2022/03/07 13:02:51;;;;;;;24.58;15.43;;;;;;;;;;4786039;30;20490;-84
2022/03/07 13:05:37;;;;;;;21.38;12.15;;;;;;;;;;4780202;30;20035;-84
2022/03/07 13:08:22;;;;;;;11.00;6.65;;;;;;;;;;4775309;30;20399;-84
2022/03/07 13:11:08;;;;;;;19.98;12.93;;;;;;;;;;4773514;30;20051;-83
2022/03/07 13:13:53;;;;;;;21.98;13.30;;;;;;;;;;4773650;30;20044;-83
2022/03/07 13:16:38;;;;;;;22.92;14.65;;;;;;;;;;4772062;30;20048;-85
2022/03/07 13:19:25;;;;;;;27.27;18.23;;;;;;;;;;4772261;30;20051;-84
2022/03/07 13:22:11;;;;;;;26.83;15.60;;;;;;;;;;4778363;30;20416;-85
2022/03/07 13:24:58;;;;;;;30.65;17.55;;;;;;;;;;4777316;30;20060;-87
2022/03/07 13:27:46;;;;;;;31.00;17.95;;;;;;;;;;4777639;30;20491;-84
2022/03/07 13:30:31;;;;;;;16.88;9.73;;;;;;;;;;4771583;30;20052;-85
2022/03/07 13:33:17;;;;;;;31.95;19.25;;;;;;;;;;4770871;30;20044;-80
2022/03/07 13:36:14;;;;;;;44.83;21.25;;;;;;;;;;4773055;30;20060;-90
2022/03/07 13:39:30;;;;;;;46.05;24.88;;;;;;;;;;4775165;30;20043;-88
2022/03/07 13:42:16;;;;;;;35.38;21.55;;;;;;;;;;4776756;30;20143;-90
2022/03/07 13:45:05;;;;;;;38.08;20.45;;;;;;;;;;4779939;30;20403;-91
2022/03/07 13:47:59;;;;;;;155.85;51.08;;;;;;;;;;4772250;30;20051;-91
2022/03/07 13:50:47;;;;;;;33.45;17.35;;;;;;;;;;4764078;30;20047;-85
2022/03/07 13:53:34;;;;;;;29.02;17.83;;;;;;;;;;4770926;30;20055;-84
2022/03/07 13:56:26;;;;;;;26.60;16.40;;;;;;;;;;4766463;30;20051;-82
2022/03/07 13:59:15;;;;;;;38.15;21.20;;;;;;;;;;4771842;30;20063;-80
2022/03/07 14:02:13;;;;;;;34.08;19.70;;;;;;;;;;4773283;30;20493;-84
2022/03/07 14:05:00;;;;;;;27.50;16.90;;;;;;;;;;4772231;30;20055;-87
2022/03/07 14:07:53;;;;;;;28.83;17.33;;;;;;;;;;4771681;30;20048;-88
2022/03/07 14:10:40;;;;;;;41.10;24.52;;;;;;;;;;4771603;30;20052;-87
2022/03/07 14:13:48;;;;;;;39.38;21.40;;;;;;;;;;4771199;30;20043;-87
2022/03/07 14:16:38;;;;;;;30.70;19.13;;;;;;;;;;4771581;30;20415;-88
2022/03/07 14:19:24;;;;;;;30.42;18.23;;;;;;;;;;4776455;30;20052;-87
2022/03/07 14:22:09;;;;;;;37.20;20.63;;;;;;;;;;4771549;30;20047;-88
2022/03/07 14:24:56;;;;;;;39.63;20.05;;;;;;;;;;4777172;30;20047;-87
2022/03/07 14:27:41;;;;;;;34.30;21.02;;;;;;;;;;4776229;30;20064;-79
2022/03/07 14:30:28;;;;;;;34.78;21.20;;;;;;;;;;4771266;30;20043;-82
2022/03/07 14:33:13;;;;;;;23.17;13.02;;;;;;;;;;4770891;30;20052;-78
2022/03/07 14:35:58;;;;;;;13.85;9.20;;;;;;;;;;4788355;30;20051;-79
2022/03/07 14:38:44;;;;;;;34.85;20.10;;;;;;;;;;4785422;29;20051;-88
2022/03/07 14:41:29;;;;;;;28.80;17.58;;;;;;;;;;4786220;30;20052;-79
2022/03/07 14:44:15;;;;;;;16.48;9.65;;;;;;;;;;4764389;30;20402;-82
2022/03/07 14:47:00;;;;;;;30.25;17.65;;;;;;;;;;4778307;29;20426;-85
2022/03/07 14:49:47;;;;;;;42.75;22.48;;;;;;;;;;4771208;30;20051;-88
2022/03/07 14:52:32;;;;;;;38.97;23.00;;;;;;;;;;4770230;30;20047;-84
2022/03/07 14:55:22;;;;;;;39.60;22.60;;;;;;;;;;4777608;30;20052;-83
2022/03/07 14:58:07;;;;;;;37.80;20.67;;;;;;;;;;4771005;30;20055;-81
2022/03/07 15:00:53;;;;;;;40.25;22.33;;;;;;;;;;4771910;30;20051;-91
2022/03/07 15:03:38;;;;;;;46.15;23.70;;;;;;;;;;4775857;30;20044;-82
2022/03/07 15:06:25;;;;;;;49.95;26.48;;;;;;;;;;4770461;30;20515;-82
2022/03/07 15:09:11;;;;;;;68.00;34.03;;;;;;;;;;4770750;30;20155;-82
2022/03/07 15:11:56;;;;;;;39.17;22.70;;;;;;;;;;4773657;30;20052;-86
2022/03/07 15:14:41;;;;;;;48.40;26.27;;;;;;;;;;4761999;30;20051;-82
2022/03/07 15:17:28;;;;;;;41.17;24.77;;;;;;;;;;4780660;30;20063;-81
2022/03/07 15:20:14;;;;;;;40.42;20.80;;;;;;;;;;4773825;30;20055;-83
2022/03/07 15:22:59;;;;;;;48.88;25.73;;;;;;;;;;4779780;30;20072;-83
2022/03/07 15:25:48;;;;;;;54.78;30.45;;;;;;;;;;4774243;30;20055;-81
2022/03/07 15:28:33;;;;;;;35.65;19.33;;;;;;;;;;4774399;30;20055;-83
2022/03/07 15:31:19;;;;;;;45.28;24.35;;;;;;;;;;4774144;30;20048;-82
2022/03/07 15:34:04;;;;;;;53.85;26.90;;;;;;;;;;4773594;30;20051;-81
2022/03/07 15:36:50;;;;;;;58.72;29.80;;;;;;;;;;4774864;30;20479;-82
2022/03/07 15:39:36;;;;;;;49.00;26.13;;;;;;;;;;4760562;30;20051;-82
2022/03/07 15:42:21;;;;;;;51.85;19.10;;;;;;;;;;4774262;30;20039;-81
2022/03/07 15:45:07;;;;;;;53.22;24.98;;;;;;;;;;4778649;30;20123;-83
2022/03/07 15:47:52;;;;;;;45.72;20.88;;;;;;;;;;4779516;30;20406;-83
2022/03/07 15:50:38;;;;;;;60.28;30.70;;;;;;;;;;4778602;30;20056;-82
2022/03/07 15:53:23;;;;;;;50.97;25.88;;;;;;;;;;4779772;30;20047;-82
2022/03/07 15:56:10;;;;;;;46.72;22.75;;;;;;;;;;4778892;30;20052;-83
2022/03/07 15:58:56;;;;;;;38.67;19.48;;;;;;;;;;4778805;30;20048;-83
2022/03/07 16:01:42;;;;;;;55.20;26.67;;;;;;;;;;4779600;30;20055;-82
2022/03/07 16:04:27;;;;;;;42.95;18.33;;;;;;;;;;4783496;30;20048;-83
2022/03/07 16:07:13;;;;;;;55.60;23.40;;;;;;;;;;4773292;30;20043;-81
2022/03/07 16:09:58;;;;;;;50.33;23.48;;;;;;;;;;4773644;30;20051;-81
2022/03/07 16:12:44;;;;;;;49.97;24.35;;;;;;;;;;4773300;30;20051;-83